• °C
  • Pobieranie danych...
wx


PRINT OUT SECTION, show »

TAF EPBY 261730Z 2618/2718 27010KT 9999 BKN020
TEMPO 2618/2708 BKN013
PROB30 TEMPO 2619/2623 4000 -SHSN BKN005 OVC010TCU
BECMG 2708/2710 30010KT SCT040=

TAF EPGD 261730Z 2618/2718 28011KT 9999 BKN025
TEMPO 2618/2706 4000 -SN BR BKN007 BKN014
PROB40 TEMPO 2618/2624 1400 SHSN BKN004 BKN010CB=

TAF EPKK 261730Z 2618/2718 25008KT 9999 BKN020
TEMPO 2621/2718 4000 -SN BR SCT008 BKN013
PROB40 TEMPO 2701/2718 25015G26KT 1000 +SHSN BLSN BKN005
BKN010CB=

TAF EPKT 261730Z 2618/2718 26010KT 9999 BKN023
TEMPO 2620/2715 4000 -SN BR SCT006 OVC013
PROB40 TEMPO 2620/2715 29015G25KT 2000 +SHSN BLSN BKN005
BKN010CB=

TAF EPLL 261730Z 2618/2718 26010KT 7000 BKN025
TEMPO 2618/2712 4000 -SHSN BR BKN007 BKN012CB
PROB40 TEMPO 2623/2712 1400 SN BKN004=

TAF EPMO 261730Z 2618/2718 27012KT 9999 BKN020 BKN040
TEMPO 2618/2620 29015G25KT -SN BKN012
TEMPO 2620/2709 3500 -SN BKN007 OVC012
PROB40 TEMPO 2701/2709 1600 SHSN BR BKN004 BKN008CB
TEMPO 2709/2712 -SHSN SCT012 BKN020TCU=

TAF EPPO 261730Z 2618/2718 29010KT 9999 OVC015
TEMPO 2618/2709 2500 SN BR BKN007 OVC012
PROB30 TEMPO 2618/2624 1400 SHSN BKN004 BKN009CB
BECMG 2715/2718 22005KT=

TAF EPRZ 261730Z 2618/2718 26012KT 9999 BKN023
TEMPO 2618/2710 4000 -SN BR BKN008 BKN013
TEMPO 2710/2718 27017G28KT 1000 +SHSN BLSN BKN005
BKN010CB=

TAF EPSC 261730Z 2618/2718 27008KT 7000 BKN011
TEMPO 2618/2623 BKN008
PROB40 TEMPO 2623/2707 3000 BR BKN004 BKN006
BECMG 2707/2709 BKN015
BECMG 2716/2718 17010KT=

TAF EPWA 261730Z 2618/2718 27012KT 9999 BKN020 BKN040
TEMPO 2618/2620 29015G25KT -SN BKN012
TEMPO 2620/2710 3500 -SN BKN007 OVC012
PROB40 TEMPO 2702/2709 1600 SHSN BR BKN004 BKN008CB
TEMPO 2710/2713 -SHSN SCT012 BKN020TCU=

TAF EPWR 261730Z 2618/2718 28010KT CAVOK
TEMPO 2619/2710 2500 SN BR BKN007 BKN012
PROB40 TEMPO 2619/2624 1400 SHSN BKN004 BKN009CB
BECMG 2715/2718 20005KT=



IMGW-PIB Sites